sensor_id;sensor_type;location;lat;lon;timestamp;P1;durP1;ratioP1;P2;durP2;ratioP2
35364;SDS011;21464;48.112;11.530;2024-02-21T00:01:14;3.80;;;1.93;;
35364;SDS011;21464;48.112;11.530;2024-02-21T00:03:42;3.23;;;2.10;;
35364;SDS011;21464;48.112;11.530;2024-02-21T00:06:08;3.17;;;1.90;;
35364;SDS011;21464;48.112;11.530;2024-02-21T00:08:34;3.37;;;1.80;;
35364;SDS011;21464;48.112;11.530;2024-02-21T00:11:00;3.37;;;2.03;;
35364;SDS011;21464;48.112;11.530;2024-02-21T00:13:27;3.37;;;2.03;;
35364;SDS011;21464;48.112;11.530;2024-02-21T00:15:53;4.27;;;1.80;;
35364;SDS011;21464;48.112;11.530;2024-02-21T00:18:20;3.00;;;1.77;;
35364;SDS011;21464;48.112;11.530;2024-02-21T00:20:46;5.60;;;2.30;;
35364;SDS011;21464;48.112;11.530;2024-02-21T00:23:12;4.13;;;2.10;;
35364;SDS011;21464;48.112;11.530;2024-02-21T00:25:38;3.57;;;1.90;;
35364;SDS011;21464;48.112;11.530;2024-02-21T00:28:05;3.53;;;2.00;;
35364;SDS011;21464;48.112;11.530;2024-02-21T00:30:32;3.90;;;1.97;;
35364;SDS011;21464;48.112;11.530;2024-02-21T00:32:58;2.77;;;1.80;;
35364;SDS011;21464;48.112;11.530;2024-02-21T00:35:24;2.77;;;1.73;;
35364;SDS011;21464;48.112;11.530;2024-02-21T00:37:51;2.53;;;1.70;;
35364;SDS011;21464;48.112;11.530;2024-02-21T00:40:17;3.60;;;1.93;;
35364;SDS011;21464;48.112;11.530;2024-02-21T00:42:46;2.80;;;1.83;;
35364;SDS011;21464;48.112;11.530;2024-02-21T00:45:13;3.23;;;2.13;;
35364;SDS011;21464;48.112;11.530;2024-02-21T00:47:39;4.63;;;2.30;;
35364;SDS011;21464;48.112;11.530;2024-02-21T00:50:06;2.70;;;1.83;;
35364;SDS011;21464;48.112;11.530;2024-02-21T00:52:33;2.83;;;1.93;;
35364;SDS011;21464;48.112;11.530;2024-02-21T00:54:59;3.00;;;2.20;;
35364;SDS011;21464;48.112;11.530;2024-02-21T00:57:25;2.70;;;1.80;;
35364;SDS011;21464;48.112;11.530;2024-02-21T00:59:52;3.57;;;2.17;;
35364;SDS011;21464;48.112;11.530;2024-02-21T01:02:18;2.40;;;1.77;;
35364;SDS011;21464;48.112;11.530;2024-02-21T01:04:44;2.90;;;1.97;;
35364;SDS011;21464;48.112;11.530;2024-02-21T01:07:11;3.83;;;1.87;;
35364;SDS011;21464;48.112;11.530;2024-02-21T01:09:37;2.47;;;1.60;;
35364;SDS011;21464;48.112;11.530;2024-02-21T01:12:03;2.90;;;2.00;;
35364;SDS011;21464;48.112;11.530;2024-02-21T01:14:30;3.77;;;1.63;;
35364;SDS011;21464;48.112;11.530;2024-02-21T01:16:56;4.27;;;1.87;;
35364;SDS011;21464;48.112;11.530;2024-02-21T01:19:23;4.20;;;1.90;;
35364;SDS011;21464;48.112;11.530;2024-02-21T01:21:49;2.07;;;1.87;;
35364;SDS011;21464;48.112;11.530;2024-02-21T01:24:15;2.70;;;1.80;;
35364;SDS011;21464;48.112;11.530;2024-02-21T01:26:42;3.37;;;1.93;;
35364;SDS011;21464;48.112;11.530;2024-02-21T01:29:08;3.43;;;1.70;;
35364;SDS011;21464;48.112;11.530;2024-02-21T01:31:34;2.93;;;1.97;;
35364;SDS011;21464;48.112;11.530;2024-02-21T01:34:00;2.50;;;1.30;;
35364;SDS011;21464;48.112;11.530;2024-02-21T01:36:27;3.83;;;2.00;;
35364;SDS011;21464;48.112;11.530;2024-02-21T01:38:53;2.60;;;1.63;;
35364;SDS011;21464;48.112;11.530;2024-02-21T01:41:19;1.50;;;1.40;;
35364;SDS011;21464;48.112;11.530;2024-02-21T01:43:45;1.70;;;1.60;;
35364;SDS011;21464;48.112;11.530;2024-02-21T01:46:12;2.30;;;1.80;;
35364;SDS011;21464;48.112;11.530;2024-02-21T01:48:38;1.90;;;1.57;;
35364;SDS011;21464;48.112;11.530;2024-02-21T01:51:04;2.07;;;1.60;;
35364;SDS011;21464;48.112;11.530;2024-02-21T01:53:35;2.23;;;1.33;;
35364;SDS011;21464;48.112;11.530;2024-02-21T01:56:03;2.33;;;1.60;;
35364;SDS011;21464;48.112;11.530;2024-02-21T01:58:32;1.73;;;1.63;;
35364;SDS011;21464;48.112;11.530;2024-02-21T02:00:59;1.67;;;1.40;;
35364;SDS011;21464;48.112;11.530;2024-02-21T02:03:26;2.17;;;1.50;;
35364;SDS011;21464;48.112;11.530;2024-02-21T02:05:52;1.63;;;1.50;;
35364;SDS011;21464;48.112;11.530;2024-02-21T02:08:19;1.50;;;1.40;;
35364;SDS011;21464;48.112;11.530;2024-02-21T02:10:48;2.27;;;1.97;;
35364;SDS011;21464;48.112;11.530;2024-02-21T02:13:14;3.50;;;1.90;;
35364;SDS011;21464;48.112;11.530;2024-02-21T02:15:41;1.63;;;1.40;;
35364;SDS011;21464;48.112;11.530;2024-02-21T02:18:09;1.50;;;1.40;;
35364;SDS011;21464;48.112;11.530;2024-02-21T02:20:36;2.43;;;1.40;;
35364;SDS011;21464;48.112;11.530;2024-02-21T02:25:51;1.93;;;1.57;;
35364;SDS011;21464;48.112;11.530;2024-02-21T02:28:20;1.40;;;1.30;;
35364;SDS011;21464;48.112;11.530;2024-02-21T02:30:47;2.17;;;1.40;;
35364;SDS011;21464;48.112;11.530;2024-02-21T02:33:13;1.43;;;1.30;;
35364;SDS011;21464;48.112;11.530;2024-02-21T02:35:40;2.27;;;1.60;;
35364;SDS011;21464;48.112;11.530;2024-02-21T02:38:06;1.53;;;1.20;;
35364;SDS011;21464;48.112;11.530;2024-02-21T02:40:33;1.63;;;1.50;;
35364;SDS011;21464;48.112;11.530;2024-02-21T02:43:00;1.60;;;1.50;;
35364;SDS011;21464;48.112;11.530;2024-02-21T02:45:26;2.93;;;1.63;;
35364;SDS011;21464;48.112;11.530;2024-02-21T02:47:53;1.40;;;1.23;;
35364;SDS011;21464;48.112;11.530;2024-02-21T02:50:23;2.47;;;1.57;;
35364;SDS011;21464;48.112;11.530;2024-02-21T02:52:49;3.13;;;1.20;;
35364;SDS011;21464;48.112;11.530;2024-02-21T02:55:16;2.97;;;1.50;;
35364;SDS011;21464;48.112;11.530;2024-02-21T02:57:42;2.77;;;1.50;;
35364;SDS011;21464;48.112;11.530;2024-02-21T03:00:12;1.97;;;1.30;;
35364;SDS011;21464;48.112;11.530;2024-02-21T03:02:39;2.33;;;1.33;;
35364;SDS011;21464;48.112;11.530;2024-02-21T03:05:13;1.60;;;1.50;;
35364;SDS011;21464;48.112;11.530;2024-02-21T03:07:44;1.60;;;1.50;;
35364;SDS011;21464;48.112;11.530;2024-02-21T03:10:11;2.33;;;1.33;;
35364;SDS011;21464;48.112;11.530;2024-02-21T03:12:38;1.47;;;1.30;;
35364;SDS011;21464;48.112;11.530;2024-02-21T03:15:04;3.23;;;1.50;;
35364;SDS011;21464;48.112;11.530;2024-02-21T03:17:31;1.50;;;1.40;;
35364;SDS011;21464;48.112;11.530;2024-02-21T03:20:00;3.40;;;1.37;;
35364;SDS011;21464;48.112;11.530;2024-02-21T03:22:31;2.13;;;1.37;;
35364;SDS011;21464;48.112;11.530;2024-02-21T03:24:58;2.13;;;1.43;;
35364;SDS011;21464;48.112;11.530;2024-02-21T03:27:24;1.63;;;1.53;;
35364;SDS011;21464;48.112;11.530;2024-02-21T03:29:51;1.80;;;1.40;;
35364;SDS011;21464;48.112;11.530;2024-02-21T03:32:17;1.30;;;1.20;;
35364;SDS011;21464;48.112;11.530;2024-02-21T03:34:43;2.40;;;1.47;;
35364;SDS011;21464;48.112;11.530;2024-02-21T03:37:09;1.97;;;1.27;;
35364;SDS011;21464;48.112;11.530;2024-02-21T03:39:36;1.73;;;1.50;;
35364;SDS011;21464;48.112;11.530;2024-02-21T03:42:03;3.87;;;1.30;;
35364;SDS011;21464;48.112;11.530;2024-02-21T03:44:31;1.70;;;1.17;;
35364;SDS011;21464;48.112;11.530;2024-02-21T03:46:58;1.30;;;1.10;;
35364;SDS011;21464;48.112;11.530;2024-02-21T03:49:26;1.33;;;1.13;;
35364;SDS011;21464;48.112;11.530;2024-02-21T03:51:52;1.43;;;1.30;;
35364;SDS011;21464;48.112;11.530;2024-02-21T03:54:19;1.63;;;1.43;;
35364;SDS011;21464;48.112;11.530;2024-02-21T03:56:45;1.50;;;1.40;;
35364;SDS011;21464;48.112;11.530;2024-02-21T03:59:13;1.40;;;1.30;;
35364;SDS011;21464;48.112;11.530;2024-02-21T04:01:39;1.40;;;1.30;;
35364;SDS011;21464;48.112;11.530;2024-02-21T04:04:06;1.93;;;1.20;;
35364;SDS011;21464;48.112;11.530;2024-02-21T04:06:32;1.00;;;1.00;;
35364;SDS011;21464;48.112;11.530;2024-02-21T04:08:59;1.37;;;1.10;;
35364;SDS011;21464;48.112;11.530;2024-02-21T04:11:25;1.37;;;1.17;;
35364;SDS011;21464;48.112;11.530;2024-02-21T04:13:51;1.67;;;1.10;;
35364;SDS011;21464;48.112;11.530;2024-02-21T04:16:18;1.10;;;1.10;;
35364;SDS011;21464;48.112;11.530;2024-02-21T04:18:44;3.03;;;1.10;;
35364;SDS011;21464;48.112;11.530;2024-02-21T04:21:13;1.57;;;1.20;;
35364;SDS011;21464;48.112;11.530;2024-02-21T04:23:40;1.80;;;1.10;;
35364;SDS011;21464;48.112;11.530;2024-02-21T04:26:06;1.33;;;1.13;;
35364;SDS011;21464;48.112;11.530;2024-02-21T04:28:33;1.53;;;1.30;;
35364;SDS011;21464;48.112;11.530;2024-02-21T04:30:59;2.13;;;1.10;;
35364;SDS011;21464;48.112;11.530;2024-02-21T04:33:25;1.57;;;1.27;;
35364;SDS011;21464;48.112;11.530;2024-02-21T04:35:52;3.03;;;1.17;;
35364;SDS011;21464;48.112;11.530;2024-02-21T04:38:20;1.17;;;1.17;;
35364;SDS011;21464;48.112;11.530;2024-02-21T04:40:47;1.40;;;1.30;;
35364;SDS011;21464;48.112;11.530;2024-02-21T04:43:13;1.13;;;1.10;;
35364;SDS011;21464;48.112;11.530;2024-02-21T04:45:39;2.50;;;1.20;;
35364;SDS011;21464;48.112;11.530;2024-02-21T04:48:05;1.73;;;1.00;;
35364;SDS011;21464;48.112;11.530;2024-02-21T04:50:32;1.77;;;1.17;;
35364;SDS011;21464;48.112;11.530;2024-02-21T04:52:58;1.30;;;1.20;;
35364;SDS011;21464;48.112;11.530;2024-02-21T04:55:25;1.47;;;1.33;;
35364;SDS011;21464;48.112;11.530;2024-02-21T04:57:51;1.10;;;1.10;;
35364;SDS011;21464;48.112;11.530;2024-02-21T05:00:17;1.20;;;1.20;;
35364;SDS011;21464;48.112;11.530;2024-02-21T05:02:44;1.87;;;1.27;;
35364;SDS011;21464;48.112;11.530;2024-02-21T05:05:10;1.30;;;1.20;;
35364;SDS011;21464;48.112;11.530;2024-02-21T05:07:36;1.67;;;1.10;;
35364;SDS011;21464;48.112;11.530;2024-02-21T05:10:03;1.40;;;1.30;;
35364;SDS011;21464;48.112;11.530;2024-02-21T05:12:29;1.97;;;1.60;;
35364;SDS011;21464;48.112;11.530;2024-02-21T05:14:56;3.83;;;1.90;;
35364;SDS011;21464;48.112;11.530;2024-02-21T05:17:22;3.30;;;2.20;;
35364;SDS011;21464;48.112;11.530;2024-02-21T05:19:48;2.67;;;1.87;;
35364;SDS011;21464;48.112;11.530;2024-02-21T05:22:14;2.80;;;2.00;;
35364;SDS011;21464;48.112;11.530;2024-02-21T05:24:41;2.33;;;1.80;;
35364;SDS011;21464;48.112;11.530;2024-02-21T05:27:07;2.30;;;2.10;;
35364;SDS011;21464;48.112;11.530;2024-02-21T05:29:33;2.37;;;2.00;;
35364;SDS011;21464;48.112;11.530;2024-02-21T05:32:00;2.63;;;1.93;;
35364;SDS011;21464;48.112;11.530;2024-02-21T05:34:26;3.13;;;1.90;;
35364;SDS011;21464;48.112;11.530;2024-02-21T05:36:52;2.60;;;1.77;;
35364;SDS011;21464;48.112;11.530;2024-02-21T05:39:19;2.70;;;2.13;;
35364;SDS011;21464;48.112;11.530;2024-02-21T05:41:45;3.80;;;2.80;;
35364;SDS011;21464;48.112;11.530;2024-02-21T05:44:11;4.67;;;2.93;;
35364;SDS011;21464;48.112;11.530;2024-02-21T05:46:38;4.00;;;3.00;;
35364;SDS011;21464;48.112;11.530;2024-02-21T05:49:04;3.83;;;2.73;;
35364;SDS011;21464;48.112;11.530;2024-02-21T05:51:34;4.00;;;3.50;;
35364;SDS011;21464;48.112;11.530;2024-02-21T05:54:00;4.67;;;2.53;;
35364;SDS011;21464;48.112;11.530;2024-02-21T05:56:27;5.30;;;3.60;;
35364;SDS011;21464;48.112;11.530;2024-02-21T05:58:54;3.73;;;3.23;;
35364;SDS011;21464;48.112;11.530;2024-02-21T06:01:20;4.07;;;2.97;;
35364;SDS011;21464;48.112;11.530;2024-02-21T06:03:49;4.23;;;3.27;;
35364;SDS011;21464;48.112;11.530;2024-02-21T06:06:15;3.13;;;2.77;;
35364;SDS011;21464;48.112;11.530;2024-02-21T06:08:42;4.80;;;3.20;;
35364;SDS011;21464;48.112;11.530;2024-02-21T06:11:08;4.93;;;3.60;;
35364;SDS011;21464;48.112;11.530;2024-02-21T06:13:37;5.03;;;3.73;;
35364;SDS011;21464;48.112;11.530;2024-02-21T06:16:04;5.70;;;2.93;;
35364;SDS011;21464;48.112;11.530;2024-02-21T06:18:31;3.00;;;2.23;;
35364;SDS011;21464;48.112;11.530;2024-02-21T06:20:58;4.00;;;2.50;;
35364;SDS011;21464;48.112;11.530;2024-02-21T06:23:24;2.80;;;2.20;;
35364;SDS011;21464;48.112;11.530;2024-02-21T06:25:50;2.20;;;2.00;;
35364;SDS011;21464;48.112;11.530;2024-02-21T06:28:16;4.07;;;3.00;;
35364;SDS011;21464;48.112;11.530;2024-02-21T06:30:43;2.40;;;1.77;;
35364;SDS011;21464;48.112;11.530;2024-02-21T06:33:09;2.20;;;1.67;;
35364;SDS011;21464;48.112;11.530;2024-02-21T06:35:35;1.60;;;1.50;;
35364;SDS011;21464;48.112;11.530;2024-02-21T06:38:02;2.27;;;1.50;;
35364;SDS011;21464;48.112;11.530;2024-02-21T06:40:28;2.73;;;1.70;;
35364;SDS011;21464;48.112;11.530;2024-02-21T06:42:54;2.03;;;1.70;;
35364;SDS011;21464;48.112;11.530;2024-02-21T06:45:20;1.70;;;1.37;;
35364;SDS011;21464;48.112;11.530;2024-02-21T06:47:47;4.10;;;2.00;;
35364;SDS011;21464;48.112;11.530;2024-02-21T06:50:13;2.03;;;1.57;;
35364;SDS011;21464;48.112;11.530;2024-02-21T06:52:39;2.10;;;1.80;;
35364;SDS011;21464;48.112;11.530;2024-02-21T06:55:05;3.40;;;2.67;;
35364;SDS011;21464;48.112;11.530;2024-02-21T06:57:32;2.97;;;2.43;;
35364;SDS011;21464;48.112;11.530;2024-02-21T06:59:58;3.07;;;2.17;;
35364;SDS011;21464;48.112;11.530;2024-02-21T07:02:24;2.00;;;1.60;;
35364;SDS011;21464;48.112;11.530;2024-02-21T07:04:51;5.57;;;1.60;;
35364;SDS011;21464;48.112;11.530;2024-02-21T07:07:17;2.90;;;2.03;;
35364;SDS011;21464;48.112;11.530;2024-02-21T07:09:43;3.70;;;2.20;;
35364;SDS011;21464;48.112;11.530;2024-02-21T07:12:10;2.67;;;2.10;;
35364;SDS011;21464;48.112;11.530;2024-02-21T07:14:36;3.53;;;3.07;;
35364;SDS011;21464;48.112;11.530;2024-02-21T07:17:02;3.37;;;3.00;;
35364;SDS011;21464;48.112;11.530;2024-02-21T07:19:29;2.83;;;2.30;;
35364;SDS011;21464;48.112;11.530;2024-02-21T07:21:56;5.83;;;4.50;;
35364;SDS011;21464;48.112;11.530;2024-02-21T07:24:23;3.77;;;3.00;;
35364;SDS011;21464;48.112;11.530;2024-02-21T07:26:49;2.87;;;2.40;;
35364;SDS011;21464;48.112;11.530;2024-02-21T07:29:15;5.00;;;2.30;;
35364;SDS011;21464;48.112;11.530;2024-02-21T07:31:42;4.27;;;2.50;;
35364;SDS011;21464;48.112;11.530;2024-02-21T07:34:09;3.67;;;1.73;;
35364;SDS011;21464;48.112;11.530;2024-02-21T07:36:36;3.83;;;2.47;;
35364;SDS011;21464;48.112;11.530;2024-02-21T07:39:05;2.40;;;1.60;;
35364;SDS011;21464;48.112;11.530;2024-02-21T07:41:31;2.33;;;1.97;;
35364;SDS011;21464;48.112;11.530;2024-02-21T07:43:59;2.57;;;2.17;;
35364;SDS011;21464;48.112;11.530;2024-02-21T07:46:25;2.00;;;1.77;;
35364;SDS011;21464;48.112;11.530;2024-02-21T07:48:52;2.67;;;2.20;;
35364;SDS011;21464;48.112;11.530;2024-02-21T07:51:18;1.67;;;1.57;;
35364;SDS011;21464;48.112;11.530;2024-02-21T07:53:45;2.77;;;2.20;;
35364;SDS011;21464;48.112;11.530;2024-02-21T07:56:12;3.00;;;2.27;;
35364;SDS011;21464;48.112;11.530;2024-02-21T07:58:38;2.00;;;1.80;;
35364;SDS011;21464;48.112;11.530;2024-02-21T08:01:04;2.37;;;2.00;;
35364;SDS011;21464;48.112;11.530;2024-02-21T08:03:33;2.57;;;1.30;;
35364;SDS011;21464;48.112;11.530;2024-02-21T08:06:00;2.73;;;1.70;;
35364;SDS011;21464;48.112;11.530;2024-02-21T08:08:26;1.50;;;1.40;;
35364;SDS011;21464;48.112;11.530;2024-02-21T08:10:53;2.87;;;2.40;;
35364;SDS011;21464;48.112;11.530;2024-02-21T08:13:19;1.40;;;1.30;;
35364;SDS011;21464;48.112;11.530;2024-02-21T08:15:45;4.83;;;3.43;;
35364;SDS011;21464;48.112;11.530;2024-02-21T08:18:12;3.90;;;2.50;;
35364;SDS011;21464;48.112;11.530;2024-02-21T08:20:38;4.70;;;2.43;;
35364;SDS011;21464;48.112;11.530;2024-02-21T08:23:04;1.40;;;1.27;;
35364;SDS011;21464;48.112;11.530;2024-02-21T08:25:30;3.40;;;1.40;;
35364;SDS011;21464;48.112;11.530;2024-02-21T08:27:57;1.87;;;1.37;;
35364;SDS011;21464;48.112;11.530;2024-02-21T08:30:24;3.67;;;2.60;;
35364;SDS011;21464;48.112;11.530;2024-02-21T08:32:51;2.73;;;2.17;;
35364;SDS011;21464;48.112;11.530;2024-02-21T08:35:17;8.37;;;4.03;;
35364;SDS011;21464;48.112;11.530;2024-02-21T08:37:48;4.57;;;2.73;;
35364;SDS011;21464;48.112;11.530;2024-02-21T08:40:14;3.03;;;1.67;;
35364;SDS011;21464;48.112;11.530;2024-02-21T08:42:43;1.60;;;1.10;;
35364;SDS011;21464;48.112;11.530;2024-02-21T08:45:10;1.57;;;1.13;;
35364;SDS011;21464;48.112;11.530;2024-02-21T08:47:38;2.20;;;1.73;;
35364;SDS011;21464;48.112;11.530;2024-02-21T08:50:06;1.27;;;1.17;;
35364;SDS011;21464;48.112;11.530;2024-02-21T08:52:33;1.97;;;1.03;;
35364;SDS011;21464;48.112;11.530;2024-02-21T08:54:59;1.00;;;1.00;;
35364;SDS011;21464;48.112;11.530;2024-02-21T08:57:25;1.17;;;1.00;;
35364;SDS011;21464;48.112;11.530;2024-02-21T08:59:51;1.80;;;0.90;;
35364;SDS011;21464;48.112;11.530;2024-02-21T09:02:18;0.90;;;0.90;;
35364;SDS011;21464;48.112;11.530;2024-02-21T09:04:44;1.23;;;0.93;;
35364;SDS011;21464;48.112;11.530;2024-02-21T09:07:11;2.90;;;1.47;;
35364;SDS011;21464;48.112;11.530;2024-02-21T09:09:37;1.83;;;1.67;;
35364;SDS011;21464;48.112;11.530;2024-02-21T09:12:06;1.10;;;1.00;;
35364;SDS011;21464;48.112;11.530;2024-02-21T09:14:33;1.87;;;1.10;;
35364;SDS011;21464;48.112;11.530;2024-02-21T09:17:00;1.03;;;0.90;;
35364;SDS011;21464;48.112;11.530;2024-02-21T09:19:26;2.03;;;1.00;;
35364;SDS011;21464;48.112;11.530;2024-02-21T09:21:52;1.20;;;1.10;;
35364;SDS011;21464;48.112;11.530;2024-02-21T09:24:18;2.90;;;1.90;;
35364;SDS011;21464;48.112;11.530;2024-02-21T09:26:45;5.83;;;4.33;;
35364;SDS011;21464;48.112;11.530;2024-02-21T09:29:11;3.00;;;2.20;;
35364;SDS011;21464;48.112;11.530;2024-02-21T09:31:38;1.33;;;1.00;;
35364;SDS011;21464;48.112;11.530;2024-02-21T09:34:04;3.23;;;1.13;;
35364;SDS011;21464;48.112;11.530;2024-02-21T09:36:31;0.90;;;0.90;;
35364;SDS011;21464;48.112;11.530;2024-02-21T09:38:57;1.27;;;1.17;;
35364;SDS011;21464;48.112;11.530;2024-02-21T09:41:27;1.60;;;1.50;;
35364;SDS011;21464;48.112;11.530;2024-02-21T09:43:53;0.70;;;0.70;;
35364;SDS011;21464;48.112;11.530;2024-02-21T09:46:21;4.37;;;2.20;;
35364;SDS011;21464;48.112;11.530;2024-02-21T09:51:32;1.80;;;0.90;;
35364;SDS011;21464;48.112;11.530;2024-02-21T09:54:00;1.50;;;1.40;;
35364;SDS011;21464;48.112;11.530;2024-02-21T09:56:29;1.17;;;0.93;;
35364;SDS011;21464;48.112;11.530;2024-02-21T09:58:55;1.03;;;1.03;;
35364;SDS011;21464;48.112;11.530;2024-02-21T10:01:23;1.10;;;1.00;;
35364;SDS011;21464;48.112;11.530;2024-02-21T10:03:49;0.90;;;0.90;;
35364;SDS011;21464;48.112;11.530;2024-02-21T10:06:15;2.40;;;1.00;;
35364;SDS011;21464;48.112;11.530;2024-02-21T10:08:42;0.80;;;0.80;;
35364;SDS011;21464;48.112;11.530;2024-02-21T10:11:08;0.73;;;0.73;;
35364;SDS011;21464;48.112;11.530;2024-02-21T10:13:35;1.97;;;1.20;;
35364;SDS011;21464;48.112;11.530;2024-02-21T10:16:05;1.37;;;0.97;;
35364;SDS011;21464;48.112;11.530;2024-02-21T10:18:35;1.50;;;0.77;;
35364;SDS011;21464;48.112;11.530;2024-02-21T10:21:02;0.90;;;0.70;;
35364;SDS011;21464;48.112;11.530;2024-02-21T10:23:45;0.63;;;0.63;;
35364;SDS011;21464;48.112;11.530;2024-02-21T10:26:17;3.73;;;0.83;;
35364;SDS011;21464;48.112;11.530;2024-02-21T10:28:44;1.00;;;0.90;;
35364;SDS011;21464;48.112;11.530;2024-02-21T10:31:25;0.93;;;0.80;;
35364;SDS011;21464;48.112;11.530;2024-02-21T10:36:31;0.93;;;0.83;;
35364;SDS011;21464;48.112;11.530;2024-02-21T10:38:57;0.60;;;0.60;;
35364;SDS011;21464;48.112;11.530;2024-02-21T10:41:24;1.10;;;1.10;;
35364;SDS011;21464;48.112;11.530;2024-02-21T10:43:54;3.88;;;3.13;;
35364;SDS011;21464;48.112;11.530;2024-02-21T10:46:21;0.80;;;0.70;;
35364;SDS011;21464;48.112;11.530;2024-02-21T10:49:01;0.80;;;0.80;;
35364;SDS011;21464;48.112;11.530;2024-02-21T10:51:33;0.80;;;0.80;;
35364;SDS011;21464;48.112;11.530;2024-02-21T10:56:33;1.53;;;1.03;;
35364;SDS011;21464;48.112;11.530;2024-02-21T10:59:07;0.80;;;0.80;;
35364;SDS011;21464;48.112;11.530;2024-02-21T11:01:34;1.00;;;0.70;;
35364;SDS011;21464;48.112;11.530;2024-02-21T11:04:05;0.70;;;0.57;;
35364;SDS011;21464;48.112;11.530;2024-02-21T11:06:33;1.27;;;1.00;;
35364;SDS011;21464;48.112;11.530;2024-02-21T11:09:04;2.23;;;1.33;;
35364;SDS011;21464;48.112;11.530;2024-02-21T11:11:34;1.13;;;0.98;;
35364;SDS011;21464;48.112;11.530;2024-02-21T11:14:20;1.63;;;1.43;;
35364;SDS011;21464;48.112;11.530;2024-02-21T11:16:47;1.52;;;1.10;;
35364;SDS011;21464;48.112;11.530;2024-02-21T11:19:20;1.40;;;0.70;;
35364;SDS011;21464;48.112;11.530;2024-02-21T11:21:54;0.60;;;0.60;;
35364;SDS011;21464;48.112;11.530;2024-02-21T11:24:31;0.70;;;0.70;;
35364;SDS011;21464;48.112;11.530;2024-02-21T11:27:14;1.13;;;0.80;;
35364;SDS011;21464;48.112;11.530;2024-02-21T11:29:48;0.77;;;0.60;;
35364;SDS011;21464;48.112;11.530;2024-02-21T11:32:17;0.70;;;0.70;;
35364;SDS011;21464;48.112;11.530;2024-02-21T11:34:56;0.65;;;0.65;;
35364;SDS011;21464;48.112;11.530;2024-02-21T11:37:28;0.80;;;0.80;;
35364;SDS011;21464;48.112;11.530;2024-02-21T11:39:55;1.73;;;1.43;;
35364;SDS011;21464;48.112;11.530;2024-02-21T11:42:22;0.55;;;0.52;;
35364;SDS011;21464;48.112;11.530;2024-02-21T11:44:48;0.80;;;0.80;;
35364;SDS011;21464;48.112;11.530;2024-02-21T11:47:14;0.68;;;0.60;;
35364;SDS011;21464;48.112;11.530;2024-02-21T11:49:47;0.60;;;0.60;;
35364;SDS011;21464;48.112;11.530;2024-02-21T11:52:16;0.65;;;0.65;;
35364;SDS011;21464;48.112;11.530;2024-02-21T11:54:44;1.08;;;0.90;;
35364;SDS011;21464;48.112;11.530;2024-02-21T11:57:11;3.80;;;3.40;;
35364;SDS011;21464;48.112;11.530;2024-02-21T11:59:39;1.53;;;1.43;;
35364;SDS011;21464;48.112;11.530;2024-02-21T12:02:06;0.80;;;0.80;;
35364;SDS011;21464;48.112;11.530;2024-02-21T12:04:33;1.15;;;0.73;;
35364;SDS011;21464;48.112;11.530;2024-02-21T12:07:01;1.80;;;1.70;;
35364;SDS011;21464;48.112;11.530;2024-02-21T12:09:30;5.45;;;3.10;;
35364;SDS011;21464;48.112;11.530;2024-02-21T12:12:03;2.55;;;2.20;;
35364;SDS011;21464;48.112;11.530;2024-02-21T12:14:34;2.30;;;1.60;;
35364;SDS011;21464;48.112;11.530;2024-02-21T12:17:01;1.83;;;1.10;;
35364;SDS011;21464;48.112;11.530;2024-02-21T12:19:32;1.77;;;1.50;;
35364;SDS011;21464;48.112;11.530;2024-02-21T12:21:59;2.60;;;2.17;;
35364;SDS011;21464;48.112;11.530;2024-02-21T12:24:26;0.93;;;0.93;;
35364;SDS011;21464;48.112;11.530;2024-02-21T12:26:54;1.65;;;0.70;;
35364;SDS011;21464;48.112;11.530;2024-02-21T12:29:22;0.90;;;0.63;;
35364;SDS011;21464;48.112;11.530;2024-02-21T12:31:50;1.20;;;1.02;;
35364;SDS011;21464;48.112;11.530;2024-02-21T12:34:17;2.00;;;1.30;;
35364;SDS011;21464;48.112;11.530;2024-02-21T12:36:45;4.05;;;2.63;;
35364;SDS011;21464;48.112;11.530;2024-02-21T12:39:13;1.25;;;1.00;;
35364;SDS011;21464;48.112;11.530;2024-02-21T12:41:39;1.10;;;0.88;;
35364;SDS011;21464;48.112;11.530;2024-02-21T12:44:07;1.38;;;1.27;;
35364;SDS011;21464;48.112;11.530;2024-02-21T12:46:34;0.80;;;0.52;;
35364;SDS011;21464;48.112;11.530;2024-02-21T12:49:03;2.45;;;1.75;;
35364;SDS011;21464;48.112;11.530;2024-02-21T12:51:31;1.27;;;0.95;;
35364;SDS011;21464;48.112;11.530;2024-02-21T12:53:58;1.35;;;1.02;;
35364;SDS011;21464;48.112;11.530;2024-02-21T12:56:25;0.80;;;0.80;;
35364;SDS011;21464;48.112;11.530;2024-02-21T12:58:55;0.50;;;0.50;;
35364;SDS011;21464;48.112;11.530;2024-02-21T13:01:22;0.57;;;0.57;;
35364;SDS011;21464;48.112;11.530;2024-02-21T13:03:48;0.60;;;0.60;;
35364;SDS011;21464;48.112;11.530;2024-02-21T13:06:14;0.47;;;0.47;;
35364;SDS011;21464;48.112;11.530;2024-02-21T13:08:41;2.78;;;0.50;;
35364;SDS011;21464;48.112;11.530;2024-02-21T13:11:07;0.40;;;0.40;;
35364;SDS011;21464;48.112;11.530;2024-02-21T13:13:33;1.30;;;0.50;;
35364;SDS011;21464;48.112;11.530;2024-02-21T13:16:00;1.42;;;0.95;;
35364;SDS011;21464;48.112;11.530;2024-02-21T13:18:26;1.60;;;0.50;;
35364;SDS011;21464;48.112;11.530;2024-02-21T13:20:52;0.70;;;0.70;;
35364;SDS011;21464;48.112;11.530;2024-02-21T13:23:19;1.08;;;1.02;;
35364;SDS011;21464;48.112;11.530;2024-02-21T13:25:47;0.35;;;0.35;;
35364;SDS011;21464;48.112;11.530;2024-02-21T13:28:13;0.45;;;0.40;;
35364;SDS011;21464;48.112;11.530;2024-02-21T13:30:42;0.40;;;0.40;;
35364;SDS011;21464;48.112;11.530;2024-02-21T13:33:09;1.08;;;0.80;;
35364;SDS011;21464;48.112;11.530;2024-02-21T13:35:38;0.40;;;0.40;;
35364;SDS011;21464;48.112;11.530;2024-02-21T13:38:05;0.55;;;0.55;;
35364;SDS011;21464;48.112;11.530;2024-02-21T13:40:31;0.40;;;0.40;;
35364;SDS011;21464;48.112;11.530;2024-02-21T13:42:58;1.27;;;0.43;;
35364;SDS011;21464;48.112;11.530;2024-02-21T13:45:24;0.60;;;0.60;;
35364;SDS011;21464;48.112;11.530;2024-02-21T13:47:51;0.95;;;0.45;;
35364;SDS011;21464;48.112;11.530;2024-02-21T13:50:17;0.60;;;0.60;;
35364;SDS011;21464;48.112;11.530;2024-02-21T13:52:44;0.63;;;0.63;;
35364;SDS011;21464;48.112;11.530;2024-02-21T13:55:10;0.70;;;0.60;;
35364;SDS011;21464;48.112;11.530;2024-02-21T13:57:37;0.93;;;0.60;;
35364;SDS011;21464;48.112;11.530;2024-02-21T14:00:03;0.55;;;0.55;;
35364;SDS011;21464;48.112;11.530;2024-02-21T14:02:38;0.60;;;0.60;;
35364;SDS011;21464;48.112;11.530;2024-02-21T14:05:05;0.65;;;0.63;;
35364;SDS011;21464;48.112;11.530;2024-02-21T14:07:32;0.70;;;0.70;;
35364;SDS011;21464;48.112;11.530;2024-02-21T14:10:01;1.08;;;0.93;;
35364;SDS011;21464;48.112;11.530;2024-02-21T14:12:29;1.77;;;1.00;;
35364;SDS011;21464;48.112;11.530;2024-02-21T14:14:55;1.50;;;1.30;;
35364;SDS011;21464;48.112;11.530;2024-02-21T14:17:24;1.42;;;1.27;;
35364;SDS011;21464;48.112;11.530;2024-02-21T14:19:50;1.73;;;1.33;;
35364;SDS011;21464;48.112;11.530;2024-02-21T14:22:17;1.77;;;1.63;;
35364;SDS011;21464;48.112;11.530;2024-02-21T14:24:43;1.20;;;0.82;;
35364;SDS011;21464;48.112;11.530;2024-02-21T14:27:10;1.60;;;1.30;;
35364;SDS011;21464;48.112;11.530;2024-02-21T14:29:38;0.85;;;0.85;;
35364;SDS011;21464;48.112;11.530;2024-02-21T14:32:04;1.48;;;0.88;;
35364;SDS011;21464;48.112;11.530;2024-02-21T14:34:31;1.15;;;1.15;;
35364;SDS011;21464;48.112;11.530;2024-02-21T14:36:58;1.40;;;1.25;;
35364;SDS011;21464;48.112;11.530;2024-02-21T14:39:24;1.00;;;1.00;;
35364;SDS011;21464;48.112;11.530;2024-02-21T14:41:50;2.13;;;1.83;;
35364;SDS011;21464;48.112;11.530;2024-02-21T14:44:16;1.65;;;1.40;;